Tuesday, October 23, 2018, 10:24 PM CDT
Back to Local

KBTR, Baton Rouge Metro Ryan Field

Location: Baton Rouge, LA, United States Lat: 30.533
Local Time: 10:24 PM CDT ( 3:24 GMT) Lon: -91.15
Time Zone: US/Central Elev: 68 ft

Show me the last for .
Show Decoded

2018-10-23 21:53 METAR KBTR 240253Z 06007KT 10SM BKN011 OVC042 19/18 A3013 RMK AO2 SLP202 60001
                 T01890178 53008 =
2018-10-23 20:53 METAR KBTR 240153Z 05006KT 10SM BKN011 OVC042 19/18 A3012 RMK AO2 SLP198
                 T01890183 =
2018-10-23 20:16 METAR KBTR 240116Z 05008KT 10SM FEW011 SCT018 OVC038 19/18 A3012 RMK AO2
                 T01890183 =
2018-10-23 20:06 METAR KBTR 240106Z 06008KT 10SM FEW011 BKN016 OVC036 19/18 A3012 RMK AO2
                 T01890178 =
2018-10-23 19:53 METAR KBTR 240053Z 06009KT 9SM BKN011 BKN015 OVC036 19/18 A3011 RMK AO2 RAE35
                 SLP196 P0001 T01890183 =
2018-10-23 19:37 METAR KBTR 240037Z 04007KT 10SM BKN009 OVC030 19/18 A3011 RMK AO2 RAE35 P0001
                 T01890183 =
2018-10-23 18:53 METAR KBTR 232353Z 04006KT 10SM -RA OVC012 19/18 A3011 RMK AO2 RAB2258E14B42
                 SLP194 P0000 60000 T01890178 10211 20189 53005 =
2018-10-23 17:53 METAR KBTR 232253Z 04006KT 10SM OVC012 19/18 A3009 RMK AO2 RAE21 SLP190 P0000
                 T01890178 =
2018-10-23 17:31 METAR KBTR 232231Z 08007KT 10SM BKN013 BKN034 OVC047 19/18 A3009 RMK AO2 RAE21
                 P0000 T01890178 =
2018-10-23 16:53 METAR KBTR 232153Z 05005KT 10SM -RA FEW022 SCT030 BKN044 19/17 A3010 RMK AO2
                 SLP191 P0000 T01890172 =
2018-10-23 15:53 METAR KBTR 232053Z 04005KT 10SM -RA FEW050 BKN090 OVC110 19/17 A3009 RMK AO2
                 SLP188 P0000 60000 T01940172 56015 =
2018-10-23 14:53 METAR KBTR 231953Z 04007KT 10SM -RA FEW046 SCT065 BKN095 20/17 A3010 RMK AO2
                 RAB31 SLP191 P0000 T02000167 =
2018-10-23 13:53 METAR KBTR 231853Z 08007KT 10SM BKN110 21/16 A3009 RMK AO2 RAE1758B15E23 SLP190
                 P0000 T02060161 =
2018-10-23 12:53 METAR KBTR 231753Z 03006KT 10SM -RA FEW050 SCT090 BKN110 20/16 A3013 RMK AO2
                 RAE1655B15 SLP203 P0000 60000 T02000161 10206 20161 58009 =
2018-10-23 11:53 METAR KBTR 231653Z 01005KT 10SM -RA SCT100 BKN120 21/16 A3016 RMK AO2
                 RAB06E19B45 SLP213 P0000 T02060161 =
2018-10-23 10:53 METAR KBTR 231553Z 07006KT 10SM FEW048 FEW065 BKN090 20/16 A3015 RMK AO2
                 RAE1456B20E29 SLP208 P0000 T02000156 =
2018-10-23 09:53 METAR KBTR 231453Z 06005KT 10SM -RA FEW075 BKN110 17/16 A3016 RMK AO2 RAE06B44
                 SLP212 P0000 60000 T01720156 53012 =
2018-10-23 08:53 METAR KBTR 231353Z 04005KT 10SM -RA SCT070 BKN100 BKN120 16/14 A3015 RMK AO2
                 SLP209 P0000 T01610144 $ =
2018-10-23 07:53 METAR KBTR 231253Z 03006KT 10SM -RA FEW100 BKN120 16/14 A3013 RMK AO2 RAB40
                 SLP203 P0000 T01610144 =
2018-10-23 06:53 METAR KBTR 231153Z 02005KT 10SM FEW100 SCT120 16/14 A3013 RMK AO2 RAE02B33E42
                 SLP200 P0000 60000 T01610144 10178 20161 53006 $ =
2018-10-23 05:53 METAR KBTR 231053Z 06005KT 10SM -RA FEW120 16/15 A3011 RMK AO2 SLP196 P0000
                 T01610150 $ =
2018-10-23 04:53 METAR KBTR 230953Z 04005KT 10SM -RA CLR 17/14 A3011 RMK AO2 RAB30 SLP194 P0000
                 T01670144 =
2018-10-23 03:53 METAR KBTR 230853Z AUTO 03005KT 10SM FEW120 17/14 A3011 RMK AO2 RAE34 SLP194
                 P0000 60000 T01670144 58007 =
2018-10-23 02:53 METAR KBTR 230753Z AUTO 04004KT 10SM -RA FEW110 17/14 A3012 RMK AO2 RAB00E16B45
                 SLP197 P0000 T01720144 =
2018-10-23 01:53 METAR KBTR 230653Z AUTO 02003KT 10SM BKN120 17/14 A3012 RMK AO2 SLP199 T01720144
                 =
2018-10-23 00:53 METAR KBTR 230553Z AUTO 00000KT 10SM SCT120 18/14 A3013 RMK AO2 SLP201 60000
                 T01780144 10200 20178 402330083 58004 =
2018-10-22 23:53 METAR KBTR 230453Z AUTO 02004KT 10SM SCT120 18/15 A3013 RMK AO2 SLP202 T01780150
                 =
2018-10-22 22:53 METAR KBTR 230353Z 02003KT 10SM SCT110 18/16 A3015 RMK AO2 SLP207 T01830156 =

Support USWX by starting your Amazon purchase here.